Sect Las Uvas, Puerto Rico
Current Conditions -  °F | °C
As of 2:50 PM on Friday 21 Nov 2014 (Local Time) from TJBQ Reporting Station
Clear Clear  
Wind Chill: 84°   Ceiling: Unl
Heat Index: 90°   Visibility: 10mi
Dew Point: 72°   Wind: 20mph
Humidity: 66%   Direction: 90°E
Pressure: 29.97"   Gusts: NA
Location:  18.4951°N, 67.0273°W
Report Text: TJBQ 211850Z 09017KT 10SM SKC 29/22 A2997 RMK RWY08 ATIS X
Loading
Personal Weather Stations






























Interactive Weather Map New forecast layout! Learn more

10-Day Weather Forecast

Advertisements
Track Severe Weather on mobile